createdAt,value
2018-09-04T00:01:26.431Z,26.83
2018-09-04T00:03:55.046Z,27.37
2018-09-04T00:06:23.617Z,27.63
2018-09-04T00:08:53.010Z,28.77
2018-09-04T00:11:21.596Z,29.07
2018-09-04T00:13:50.134Z,30.80
2018-09-04T00:16:18.851Z,29.83
2018-09-04T00:18:50.407Z,30.70
2018-09-04T00:21:19.038Z,29.70
2018-09-04T00:23:47.650Z,31.37
2018-09-04T00:26:16.868Z,31.10
2018-09-04T00:28:45.499Z,32.73
2018-09-04T00:31:14.094Z,33.37
2018-09-04T00:33:42.649Z,32.87
2018-09-04T00:36:11.196Z,32.77
2018-09-04T00:38:39.767Z,33.83
2018-09-04T00:41:08.341Z,32.80
2018-09-04T00:43:36.836Z,33.83
2018-09-04T00:46:05.403Z,33.03
2018-09-04T00:48:33.967Z,33.93
2018-09-04T00:51:02.661Z,35.47
2018-09-04T00:53:31.409Z,35.17
2018-09-04T00:56:00.058Z,34.17
2018-09-04T00:58:28.605Z,33.87
2018-09-04T01:00:57.301Z,35.13
2018-09-04T01:03:25.970Z,36.80
2018-09-04T01:05:54.615Z,35.87
2018-09-04T01:08:23.322Z,36.83
2018-09-04T01:10:51.827Z,36.53
2018-09-04T01:13:20.389Z,35.60
2018-09-04T01:15:55.574Z,37.83
2018-09-04T01:18:25.128Z,37.53
2018-09-04T01:20:53.617Z,37.80
2018-09-04T01:23:22.116Z,38.80
2018-09-04T01:25:50.727Z,41.90
2018-09-04T01:28:19.267Z,41.50
2018-09-04T01:30:47.835Z,44.60
2018-09-04T01:33:16.436Z,44.23
2018-09-04T01:35:44.969Z,46.83
2018-09-04T01:38:13.492Z,47.27
2018-09-04T01:40:42.034Z,48.47
2018-09-04T01:43:10.536Z,49.83
2018-09-04T01:45:39.235Z,48.53
2018-09-04T01:48:07.842Z,49.03
2018-09-04T01:50:36.447Z,48.60
2018-09-04T01:53:04.997Z,49.73
2018-09-04T01:55:33.656Z,52.23
2018-09-04T01:58:02.224Z,54.93
2018-09-04T02:00:30.826Z,51.97
2018-09-04T02:02:59.417Z,53.87
2018-09-04T02:05:27.946Z,55.30
2018-09-04T02:07:56.516Z,56.20
2018-09-04T02:10:25.083Z,55.60
2018-09-04T02:12:53.623Z,56.60
2018-09-04T02:15:22.249Z,56.83
2018-09-04T02:17:50.778Z,56.23
2018-09-04T02:20:19.954Z,56.43
2018-09-04T02:22:48.640Z,59.27
2018-09-04T02:25:17.118Z,59.23
2018-09-04T02:27:45.620Z,57.13
2018-09-04T02:30:14.181Z,57.57
2018-09-04T02:32:42.630Z,55.97
2018-09-04T02:35:11.179Z,54.90
2018-09-04T02:37:39.869Z,55.63
2018-09-04T02:40:09.152Z,57.57
2018-09-04T02:42:37.652Z,55.97
2018-09-04T02:45:06.531Z,57.57
2018-09-04T02:47:35.109Z,57.87
2018-09-04T02:50:03.709Z,59.90
2018-09-04T02:52:32.345Z,57.23
2018-09-04T02:55:00.985Z,59.97
2018-09-04T02:57:29.575Z,57.70
2018-09-04T02:59:58.041Z,58.97
2018-09-04T03:02:26.700Z,57.77
2018-09-04T03:04:55.225Z,58.50
2018-09-04T03:07:23.794Z,57.13
2018-09-04T03:09:52.435Z,57.37
2018-09-04T03:12:21.097Z,57.23
2018-09-04T03:14:50.191Z,60.37
2018-09-04T03:17:18.707Z,59.43
2018-09-04T03:19:47.345Z,57.63
2018-09-04T03:22:15.948Z,61.43
2018-09-04T03:24:44.605Z,60.60
2018-09-04T03:27:13.261Z,63.07
2018-09-04T03:29:41.834Z,57.03
2018-09-04T03:32:10.389Z,60.13
2018-09-04T03:34:38.982Z,61.20
2018-09-04T03:37:07.884Z,59.13
2018-09-04T03:39:36.385Z,58.30
2018-09-04T03:42:04.941Z,58.03
2018-09-04T03:44:33.366Z,57.27
2018-09-04T03:47:01.949Z,58.53
2018-09-04T03:49:30.503Z,55.97
2018-09-04T03:51:59.025Z,57.50
2018-09-04T03:54:27.556Z,55.80
2018-09-04T03:56:56.076Z,58.17
2018-09-04T03:59:24.621Z,55.40
2018-09-04T04:01:53.205Z,55.07
2018-09-04T04:04:21.717Z,55.73
2018-09-04T04:06:51.094Z,53.93
2018-09-04T04:09:19.658Z,54.73
2018-09-04T04:11:48.203Z,55.50
2018-09-04T04:14:16.832Z,53.30
2018-09-04T04:16:45.293Z,54.57
2018-09-04T04:19:13.795Z,53.53
2018-09-04T04:21:42.445Z,53.53
2018-09-04T04:24:11.043Z,51.00
2018-09-04T04:26:39.690Z,51.33
2018-09-04T04:29:08.239Z,48.57
2018-09-04T04:31:36.882Z,48.00
2018-09-04T04:34:05.494Z,46.67
2018-09-04T04:36:34.032Z,45.50
2018-09-04T04:39:02.597Z,46.57
2018-09-04T04:41:31.135Z,43.83
2018-09-04T04:43:59.665Z,44.70
2018-09-04T04:46:28.198Z,45.30
2018-09-04T04:48:56.736Z,44.80
2018-09-04T04:51:25.625Z,46.33
2018-09-04T04:53:54.171Z,45.07
2018-09-04T04:56:23.876Z,44.93
2018-09-04T04:58:52.458Z,45.10
2018-09-04T05:01:21.031Z,44.83
2018-09-04T05:03:49.541Z,43.20
2018-09-04T05:06:18.076Z,44.97
2018-09-04T05:08:46.643Z,43.57
2018-09-04T05:11:15.327Z,44.20
2018-09-04T05:13:43.718Z,42.10
2018-09-04T05:16:12.241Z,42.30
2018-09-04T05:18:40.887Z,43.73
2018-09-04T05:21:09.503Z,41.07
2018-09-04T05:23:38.020Z,41.70
2018-09-04T05:26:06.520Z,40.97
2018-09-04T05:28:35.213Z,40.87
2018-09-04T05:31:03.768Z,40.23
2018-09-04T05:33:40.397Z,38.33
2018-09-04T05:36:08.913Z,36.20
2018-09-04T05:38:37.565Z,35.33
2018-09-04T05:41:06.043Z,34.50
2018-09-04T05:43:39.291Z,35.80
2018-09-04T05:46:12.816Z,33.63
2018-09-04T05:48:41.467Z,32.97
2018-09-04T05:51:10.033Z,33.67
2018-09-04T05:53:43.172Z,35.43
2018-09-04T05:56:12.666Z,36.10
2018-09-04T05:58:41.315Z,35.20
2018-09-04T06:01:09.953Z,36.30
2018-09-04T06:03:38.601Z,34.43
2018-09-04T06:06:07.272Z,35.47
2018-09-04T06:08:35.801Z,35.10
2018-09-04T06:11:04.293Z,34.70
2018-09-04T06:13:33.038Z,35.50
2018-09-04T06:16:01.538Z,36.53
2018-09-04T06:18:30.101Z,36.47
2018-09-04T06:20:58.812Z,37.03
2018-09-04T06:23:27.667Z,38.07
2018-09-04T06:25:56.489Z,39.03
2018-09-04T06:28:32.026Z,36.90
2018-09-04T06:31:00.718Z,38.27
2018-09-04T06:33:29.313Z,38.37
2018-09-04T06:36:03.974Z,39.70
2018-09-04T06:38:37.149Z,38.07
2018-09-04T06:41:05.714Z,39.57
2018-09-04T06:43:34.379Z,41.43
2018-09-04T06:46:03.146Z,41.40
2018-09-04T06:48:31.791Z,42.90
2018-09-04T06:51:01.266Z,44.77
2018-09-04T06:53:30.063Z,47.23
2018-09-04T06:55:58.863Z,50.23
2018-09-04T06:58:27.536Z,49.40
2018-09-04T07:00:56.264Z,52.43
2018-09-04T07:03:25.325Z,51.70
2018-09-04T07:05:53.997Z,53.37
2018-09-04T07:08:25.706Z,53.00
2018-09-04T07:10:54.360Z,54.27
2018-09-04T07:13:29.607Z,54.30
2018-09-04T07:15:58.355Z,52.37
2018-09-04T07:18:27.811Z,51.97
2018-09-04T07:20:56.579Z,50.50
2018-09-04T07:23:25.341Z,50.80
2018-09-04T07:25:58.522Z,49.93
2018-09-04T07:28:27.207Z,49.07
2018-09-04T07:30:55.938Z,48.07
2018-09-04T07:33:25.865Z,46.07
2018-09-04T07:35:54.489Z,44.20
2018-09-04T07:38:23.017Z,39.07
2018-09-04T07:40:52.308Z,42.47
2018-09-04T07:43:22.304Z,43.37
2018-09-04T07:45:51.561Z,40.33
2018-09-04T07:48:21.097Z,41.30
2018-09-04T07:50:49.817Z,40.90
2018-09-04T07:53:18.981Z,40.03
2018-09-04T07:55:47.595Z,41.00
2018-09-04T07:58:16.112Z,41.90
2018-09-04T08:00:44.736Z,41.23
2018-09-04T08:03:13.443Z,40.80
2018-09-04T08:05:42.225Z,40.53
2018-09-04T08:08:10.766Z,38.27
2018-09-04T08:10:39.342Z,39.50
2018-09-04T08:13:08.002Z,35.93
2018-09-04T08:15:37.269Z,36.63
2018-09-04T08:18:06.260Z,35.70
2018-09-04T08:20:35.645Z,33.03
2018-09-04T08:23:04.291Z,33.10
2018-09-04T08:25:33.020Z,33.47
2018-09-04T08:28:01.613Z,30.20
2018-09-04T08:30:30.217Z,31.40
2018-09-04T08:32:58.811Z,31.20
2018-09-04T08:35:28.056Z,30.27
2018-09-04T08:37:59.658Z,26.33
2018-09-04T08:40:33.656Z,31.23
2018-09-04T08:43:02.789Z,30.43
2018-09-04T08:45:32.156Z,30.87
2018-09-04T08:48:02.573Z,34.55
2018-09-04T08:50:33.659Z,30.90
2018-09-04T08:53:02.965Z,32.57
2018-09-04T08:55:31.515Z,29.20
2018-09-04T08:58:00.067Z,29.93
2018-09-04T09:00:28.670Z,30.70
2018-09-04T09:02:58.165Z,32.03
2018-09-04T09:05:26.926Z,30.40
2018-09-04T09:07:55.596Z,31.63
2018-09-04T09:10:24.157Z,32.00
2018-09-04T09:12:53.971Z,33.77
2018-09-04T09:15:22.597Z,32.13
2018-09-04T09:17:51.271Z,31.93
2018-09-04T09:20:19.960Z,35.20
2018-09-04T09:22:48.703Z,34.47
2018-09-04T09:25:17.265Z,33.53
2018-09-04T09:27:45.896Z,34.40
2018-09-04T09:30:14.695Z,34.13
2018-09-04T09:32:43.591Z,32.03
2018-09-04T09:35:12.357Z,33.80
2018-09-04T09:37:40.961Z,33.30
2018-09-04T09:40:09.766Z,33.50
2018-09-04T09:42:38.401Z,31.87
2018-09-04T09:45:07.132Z,32.80
2018-09-04T09:47:39.991Z,32.33
2018-09-04T09:50:08.609Z,33.27
2018-09-04T09:52:37.782Z,31.77
2018-09-04T09:55:07.038Z,31.33
2018-09-04T09:57:36.140Z,32.50
2018-09-04T10:00:05.318Z,32.30
2018-09-04T10:03:09.313Z,32.10
2018-09-04T10:05:37.869Z,31.67
2018-09-04T10:08:06.576Z,29.83
2018-09-04T10:10:35.141Z,30.90
2018-09-04T10:13:03.709Z,30.13
2018-09-04T10:15:32.193Z,31.13
2018-09-04T10:18:00.773Z,30.80
2018-09-04T10:20:29.692Z,29.83
2018-09-04T10:22:58.295Z,32.67
2018-09-04T10:25:26.864Z,31.10
2018-09-04T10:27:55.807Z,30.67
2018-09-04T10:30:24.371Z,29.57
2018-09-04T10:32:54.018Z,30.87
2018-09-04T10:35:23.085Z,30.33
2018-09-04T10:37:51.999Z,31.70
2018-09-04T10:40:25.991Z,28.07
2018-09-04T10:42:54.533Z,28.87
2018-09-04T10:45:28.471Z,28.80
2018-09-04T10:47:57.197Z,28.93
2018-09-04T10:50:25.836Z,28.20
2018-09-04T10:52:54.406Z,27.73
2018-09-04T10:55:23.049Z,27.53
2018-09-04T10:57:51.791Z,28.00
2018-09-04T11:00:20.447Z,29.07
2018-09-04T11:02:54.291Z,29.73
2018-09-04T11:05:23.015Z,28.63
2018-09-04T11:07:51.701Z,27.57
2018-09-04T11:10:20.795Z,29.80
2018-09-04T11:12:49.446Z,29.30
2018-09-04T11:15:18.771Z,28.13
2018-09-04T11:17:47.367Z,29.90
2018-09-04T11:20:16.682Z,28.30
2018-09-04T11:22:45.567Z,27.93
2018-09-04T11:25:14.279Z,28.37
2018-09-04T11:27:48.678Z,29.40
2018-09-04T11:30:17.940Z,28.23
2018-09-04T11:32:46.562Z,29.60
2018-09-04T11:35:15.267Z,28.33
2018-09-04T11:37:43.936Z,26.83
2018-09-04T11:40:20.632Z,28.33
2018-09-04T11:42:49.235Z,26.93
2018-09-04T11:45:18.596Z,25.20
2018-09-04T11:47:47.186Z,26.77
2018-09-04T11:50:17.508Z,27.07
2018-09-04T11:52:46.296Z,26.30
2018-09-04T11:55:14.992Z,28.87
2018-09-04T11:57:43.580Z,27.83
2018-09-04T12:00:16.687Z,29.10
2018-09-04T12:02:45.722Z,27.23
2018-09-04T12:05:14.369Z,29.73
2018-09-04T12:07:43.083Z,27.97
2018-09-04T12:10:12.405Z,26.77
2018-09-04T12:12:41.341Z,26.03
2018-09-04T12:15:09.920Z,26.17
2018-09-04T12:17:38.945Z,26.80
2018-09-04T12:20:48.029Z,26.13
2018-09-04T12:23:16.839Z,26.37
2018-09-04T12:25:46.712Z,26.43
2018-09-04T12:28:16.300Z,25.53
2018-09-04T12:30:49.204Z,26.63
2018-09-04T12:33:18.025Z,25.47
2018-09-04T12:35:47.022Z,17.73
2018-09-04T12:38:17.588Z,15.67
2018-09-04T12:40:46.738Z,24.90
2018-09-04T12:43:15.942Z,23.37
2018-09-04T12:45:51.101Z,25.80
2018-09-04T12:48:22.828Z,25.57
2018-09-04T12:50:52.095Z,25.80
2018-09-04T12:53:21.314Z,23.73
2018-09-04T12:55:49.867Z,24.40
2018-09-04T12:58:18.466Z,17.73
2018-09-04T13:00:52.657Z,17.87
2018-09-04T13:03:22.791Z,23.77
2018-09-04T13:05:51.508Z,19.50
2018-09-04T13:08:21.301Z,22.33
2018-09-04T13:10:49.958Z,20.10
2018-09-04T13:13:18.581Z,23.07
2018-09-04T13:15:51.309Z,24.37
2018-09-04T13:18:20.182Z,24.23
2018-09-04T13:20:48.906Z,23.50
2018-09-04T13:23:17.749Z,23.07
2018-09-04T13:25:46.287Z,21.53
2018-09-04T13:28:15.041Z,23.47
2018-09-04T13:30:44.276Z,21.13
2018-09-04T13:33:12.940Z,19.60
2018-09-04T13:35:41.700Z,21.80
2018-09-04T13:38:10.317Z,19.50
2018-09-04T13:40:38.845Z,24.03
2018-09-04T13:43:07.476Z,22.90
2018-09-04T13:45:36.177Z,20.60
2018-09-04T13:48:04.869Z,20.23
2018-09-04T13:50:37.905Z,21.80
2018-09-04T13:53:06.613Z,22.80
2018-09-04T13:55:35.432Z,21.90
2018-09-04T13:58:04.043Z,22.53
2018-09-04T14:00:32.635Z,19.60
2018-09-04T14:03:01.271Z,21.23
2018-09-04T14:05:30.316Z,22.87
2018-09-04T14:07:58.932Z,21.60
2018-09-04T14:10:31.665Z,20.47
2018-09-04T14:13:00.248Z,20.47
2018-09-04T14:15:28.869Z,19.30
2018-09-04T14:17:57.570Z,19.77
2018-09-04T14:20:26.270Z,19.20
2018-09-04T14:22:54.912Z,22.53
2018-09-04T14:25:23.520Z,21.37
2018-09-04T14:27:54.109Z,21.50
2018-09-04T14:30:22.830Z,21.50
2018-09-04T14:32:51.373Z,19.97
2018-09-04T14:35:19.989Z,20.37
2018-09-04T14:37:48.550Z,20.23
2018-09-04T14:40:17.169Z,17.53
2018-09-04T14:42:46.665Z,18.67
2018-09-04T14:45:16.124Z,17.97
2018-09-04T14:47:45.099Z,16.93
2018-09-04T14:50:13.760Z,17.33
2018-09-04T14:52:42.280Z,17.17
2018-09-04T14:55:10.905Z,16.93
2018-09-04T14:57:39.488Z,15.00
2018-09-04T15:00:08.099Z,17.37
2018-09-04T15:02:36.664Z,16.00
2018-09-04T15:05:05.298Z,16.23
2018-09-04T15:07:34.038Z,17.03
2018-09-04T15:10:02.577Z,17.33
2018-09-04T15:12:31.149Z,16.70
2018-09-04T15:14:59.741Z,15.80
2018-09-04T15:17:28.283Z,15.23
2018-09-04T15:19:56.990Z,14.63
2018-09-04T15:22:27.217Z,17.03
2018-09-04T15:24:55.696Z,15.73
2018-09-04T15:27:24.277Z,16.27
2018-09-04T15:29:52.864Z,15.93
2018-09-04T15:32:21.476Z,16.03
2018-09-04T15:34:50.008Z,17.67
2018-09-04T15:37:18.789Z,14.97
2018-09-04T15:39:47.381Z,14.77
2018-09-04T15:42:17.528Z,15.70
2018-09-04T15:44:47.018Z,15.97
2018-09-04T15:47:16.680Z,16.47
2018-09-04T15:49:46.717Z,16.43
2018-09-04T15:52:19.992Z,15.20
2018-09-04T15:54:48.640Z,16.17
2018-09-04T15:57:17.173Z,13.77
2018-09-04T15:59:45.782Z,16.13
2018-09-04T16:02:14.419Z,13.43
2018-09-04T16:04:43.030Z,13.43
2018-09-04T16:07:11.808Z,15.13
2018-09-04T16:09:40.472Z,11.70
2018-09-04T16:12:09.441Z,14.07
2018-09-04T16:14:38.173Z,12.87
2018-09-04T16:17:06.973Z,13.10
2018-09-04T16:19:35.604Z,13.33
2018-09-04T16:22:04.440Z,16.20
2018-09-04T16:24:33.089Z,16.00
2018-09-04T16:27:01.874Z,15.10
2018-09-04T16:29:31.999Z,15.23
2018-09-04T16:32:01.069Z,14.37
2018-09-04T16:34:29.845Z,14.53
2018-09-04T16:36:58.457Z,13.33
2018-09-04T16:39:27.164Z,12.93
2018-09-04T16:41:56.056Z,13.63
2018-09-04T16:44:24.788Z,14.47
2018-09-04T16:46:54.429Z,14.77
2018-09-04T16:49:27.016Z,14.17
2018-09-04T16:51:57.121Z,14.17
2018-09-04T16:54:26.356Z,14.73
2018-09-04T16:56:54.981Z,16.07
2018-09-04T16:59:23.725Z,15.30
2018-09-04T17:01:52.395Z,15.07
2018-09-04T17:04:20.916Z,14.97
2018-09-04T17:06:49.440Z,14.37
2018-09-04T17:09:18.163Z,14.70
2018-09-04T17:11:46.896Z,15.03
2018-09-04T17:14:15.525Z,13.30
2018-09-04T17:16:44.031Z,14.40
2018-09-04T17:19:12.586Z,12.90
2018-09-04T17:21:41.142Z,13.33
2018-09-04T17:24:09.712Z,13.93
2018-09-04T17:26:38.189Z,14.33
2018-09-04T17:29:07.327Z,14.43
2018-09-04T17:31:35.781Z,14.43
2018-09-04T17:34:04.336Z,15.63
2018-09-04T17:36:32.795Z,15.37
2018-09-04T17:39:01.757Z,15.20
2018-09-04T17:41:30.708Z,14.80
2018-09-04T17:43:59.248Z,16.17
2018-09-04T17:46:27.841Z,14.50
2018-09-04T17:48:56.813Z,14.30
2018-09-04T17:51:25.346Z,16.40
2018-09-04T17:53:53.838Z,14.93
2018-09-04T17:56:22.463Z,16.00
2018-09-04T17:58:50.926Z,15.23
2018-09-04T18:01:19.373Z,15.93
2018-09-04T18:03:47.882Z,16.10
2018-09-04T18:06:16.468Z,16.03
2018-09-04T18:08:45.034Z,17.37
2018-09-04T18:11:13.892Z,17.07
2018-09-04T18:13:42.308Z,18.80
2018-09-04T18:16:10.914Z,16.67
2018-09-04T18:18:39.368Z,16.33
2018-09-04T18:21:41.888Z,16.57
2018-09-04T18:24:10.495Z,16.33
2018-09-04T18:26:39.465Z,17.10
2018-09-04T18:29:08.147Z,17.30
2018-09-04T18:31:36.668Z,16.80
2018-09-04T18:34:05.750Z,17.53
2018-09-04T18:36:34.335Z,18.47
2018-09-04T18:39:02.921Z,18.80
2018-09-04T18:41:31.474Z,18.57
2018-09-04T18:43:59.990Z,17.93
2018-09-04T18:46:28.476Z,17.90
2018-09-04T18:48:57.127Z,18.43
2018-09-04T18:51:26.515Z,18.30
2018-09-04T18:53:55.493Z,18.43
2018-09-04T18:56:24.045Z,18.43
2018-09-04T18:58:52.563Z,21.23
2018-09-04T19:01:21.097Z,20.53
2018-09-04T19:03:49.621Z,19.53
2018-09-04T19:06:18.170Z,21.03
2018-09-04T19:08:46.683Z,21.00
2018-09-04T19:11:15.169Z,21.17
2018-09-04T19:13:43.657Z,20.87
2018-09-04T19:16:12.189Z,20.47
2018-09-04T19:18:40.649Z,22.33
2018-09-04T19:21:09.147Z,22.67
2018-09-04T19:23:37.614Z,22.30
2018-09-04T19:26:06.198Z,23.33
2018-09-04T19:28:34.698Z,23.03
2018-09-04T19:31:03.431Z,24.10
2018-09-04T19:33:32.029Z,25.33
2018-09-04T19:36:00.637Z,24.30
2018-09-04T19:38:30.379Z,24.17
2018-09-04T19:40:59.074Z,23.47
2018-09-04T19:43:27.678Z,25.00
2018-09-04T19:45:56.816Z,23.90
2018-09-04T19:48:25.930Z,26.03
2018-09-04T19:50:54.917Z,24.83
2018-09-04T19:53:24.096Z,26.33
2018-09-04T19:55:52.677Z,27.90
2018-09-04T19:58:21.262Z,28.47
2018-09-04T20:00:51.385Z,28.57
2018-09-04T20:03:19.914Z,27.57
2018-09-04T20:05:48.505Z,28.67
2018-09-04T20:08:17.113Z,28.50
2018-09-04T20:10:45.668Z,29.60
2018-09-04T20:13:18.603Z,29.77
2018-09-04T20:15:47.117Z,28.10
2018-09-04T20:18:15.714Z,28.27
2018-09-04T20:20:44.340Z,28.10
2018-09-04T20:23:12.942Z,28.87
2018-09-04T20:25:41.629Z,27.13
2018-09-04T20:28:10.156Z,27.37
2018-09-04T20:30:39.596Z,27.27
2018-09-04T20:33:08.190Z,26.50
2018-09-04T20:35:36.779Z,27.47
2018-09-04T20:38:05.375Z,27.47
2018-09-04T20:40:34.833Z,28.90
2018-09-04T20:43:03.702Z,27.53
2018-09-04T20:45:32.446Z,29.30
2018-09-04T20:48:01.702Z,25.73
2018-09-04T20:50:30.282Z,29.50
2018-09-04T20:52:58.857Z,28.20
2018-09-04T20:55:27.438Z,29.07
2018-09-04T20:58:07.272Z,30.27
2018-09-04T21:00:47.249Z,29.30
2018-09-04T21:03:27.129Z,31.27
2018-09-04T21:06:07.226Z,29.07
2018-09-04T21:08:47.090Z,30.47
2018-09-04T21:11:15.644Z,30.80
2018-09-04T21:13:44.240Z,29.73
2018-09-04T21:16:12.764Z,29.07
2018-09-04T21:18:42.309Z,30.03
2018-09-04T21:21:10.955Z,26.87
2018-09-04T21:23:39.559Z,28.57
2018-09-04T21:26:08.625Z,27.13
2018-09-04T21:28:39.367Z,26.90
2018-09-04T21:31:08.733Z,27.07
2018-09-04T21:33:37.743Z,26.73
2018-09-04T21:36:07.089Z,26.80
2018-09-04T21:38:35.957Z,25.67
2018-09-04T21:41:05.171Z,26.43
2018-09-04T21:43:35.065Z,28.17
2018-09-04T21:46:04.176Z,28.73
2018-09-04T21:48:33.204Z,28.13
2018-09-04T21:51:02.710Z,29.20
2018-09-04T21:53:31.779Z,29.83
2018-09-04T21:56:00.508Z,31.93
2018-09-04T21:58:32.489Z,30.10
2018-09-04T22:01:01.585Z,32.73
2018-09-04T22:03:30.126Z,30.77
2018-09-04T22:05:59.841Z,30.43
2018-09-04T22:08:28.369Z,32.70
2018-09-04T22:10:57.191Z,34.07
2018-09-04T22:13:26.499Z,35.10
2018-09-04T22:15:55.110Z,32.30
2018-09-04T22:18:23.643Z,31.60
2018-09-04T22:20:52.115Z,33.67
2018-09-04T22:23:21.266Z,32.60
2018-09-04T22:25:49.807Z,33.57
2018-09-04T22:28:18.287Z,32.10
2018-09-04T22:30:46.832Z,32.43
2018-09-04T22:33:15.364Z,32.30
2018-09-04T22:35:43.931Z,31.97
2018-09-04T22:38:12.449Z,32.20
2018-09-04T22:40:41.084Z,33.43
2018-09-04T22:43:09.858Z,30.23
2018-09-04T22:45:38.504Z,31.87
2018-09-04T22:48:07.877Z,32.90
2018-09-04T22:50:41.782Z,30.83
2018-09-04T22:53:10.392Z,31.13
2018-09-04T22:55:38.963Z,30.37
2018-09-04T22:58:07.514Z,30.93
2018-09-04T23:00:36.190Z,30.33
2018-09-04T23:03:05.028Z,30.43
2018-09-04T23:05:33.603Z,30.67
2018-09-04T23:08:02.151Z,31.47
2018-09-04T23:10:30.838Z,29.90
2018-09-04T23:12:59.420Z,31.40
2018-09-04T23:15:28.040Z,31.87
2018-09-04T23:17:56.591Z,32.37
2018-09-04T23:20:25.182Z,30.57
2018-09-04T23:22:54.368Z,31.53
2018-09-04T23:25:23.762Z,32.43
2018-09-04T23:27:52.373Z,30.50
2018-09-04T23:30:20.995Z,32.07
2018-09-04T23:32:49.551Z,33.57
2018-09-04T23:35:18.074Z,32.77
2018-09-04T23:37:46.526Z,33.50
2018-09-04T23:40:15.132Z,33.10
2018-09-04T23:42:44.296Z,35.93
2018-09-04T23:45:13.622Z,34.17
2018-09-04T23:47:42.721Z,33.37
2018-09-04T23:50:11.326Z,33.10
2018-09-04T23:52:39.988Z,32.90
2018-09-04T23:55:08.570Z,33.97
2018-09-04T23:57:38.415Z,33.10
